Time;durP1;ratioP1;P1;durP2;ratioP2;P2;SDS_P1;SDS_P2;PMS_P1;PMS_P2;Temp;Humidity;BMP_temperature;BMP_pressure;BME280_temperature;BME280_humidity;BME280_pressure;Samples;Min_cycle;Max_cycle;Signal;HPM_P1;HPM_P2
2023/01/24 00:00:22;;;;;;;7.83;4.80;;;23.90;37.90;;;;;;5067214;28;20204;-80
2023/01/24 00:02:48;;;;;;;14.60;6.83;;;23.90;37.90;;;;;;5065268;28;20188;-81
2023/01/24 00:05:15;;;;;;;10.50;5.30;;;23.90;37.90;;;;;;5066166;28;20196;-79
2023/01/24 00:07:42;;;;;;;14.03;6.70;;;23.90;37.80;;;;;;5064616;28;20210;-80
2023/01/24 00:10:10;;;;;;;8.70;5.07;;;23.90;37.90;;;;;;5067811;28;20298;-74
2023/01/24 00:12:37;;;;;;;11.57;6.20;;;23.80;37.70;;;;;;5054177;28;20224;-75
2023/01/24 00:15:05;;;;;;;7.57;4.80;;;23.90;37.80;;;;;;5067103;28;20267;-79
2023/01/24 00:17:33;;;;;;;9.33;5.03;;;23.90;37.80;;;;;;5066677;28;20200;-73
2023/01/24 00:20:00;;;;;;;13.53;6.30;;;23.90;37.80;;;;;;5065247;28;20645;-66
2023/01/24 00:22:27;;;;;;;9.23;5.07;;;23.90;37.80;;;;;;5054484;28;20295;-69
2023/01/24 00:24:54;;;;;;;11.03;5.93;;;23.90;37.80;;;;;;5067187;28;20206;-77
2023/01/24 00:27:21;;;;;;;8.47;4.97;;;23.80;37.80;;;;;;5068221;28;20560;-65
2023/01/24 00:29:48;;;;;;;10.40;5.63;;;23.90;37.90;;;;;;5063177;28;20558;-66
2023/01/24 00:32:15;;;;;;;8.37;4.90;;;23.90;37.90;;;;;;5066893;28;20207;-68
2023/01/24 00:34:43;;;;;;;18.50;8.13;;;23.90;37.80;;;;;;5066534;28;20222;-65
2023/01/24 00:37:10;;;;;;;7.63;4.87;;;23.80;37.70;;;;;;5068306;28;20210;-65
2023/01/24 00:39:37;;;;;;;20.77;8.77;;;23.90;37.90;;;;;;5055547;28;20200;-72
2023/01/24 00:42:04;;;;;;;9.20;5.03;;;23.80;37.70;;;;;;5059021;28;20203;-65
2023/01/24 00:44:31;;;;;;;8.93;5.13;;;23.90;37.80;;;;;;5067659;28;20209;-65
2023/01/24 00:46:57;;;;;;;8.27;4.90;;;23.90;37.80;;;;;;5066452;28;20229;-65
2023/01/24 00:49:24;;;;;;;8.73;5.30;;;23.90;37.80;;;;;;5068585;28;20278;-66
2023/01/24 00:51:53;;;;;;;10.00;5.73;;;23.90;37.80;;;;;;5063044;28;20299;-67
2023/01/24 00:54:20;;;;;;;8.07;4.97;;;23.80;37.70;;;;;;5063422;28;20223;-66
2023/01/24 00:56:46;;;;;;;11.00;5.53;;;23.90;37.80;;;;;;5065934;28;20208;-66
2023/01/24 00:59:13;;;;;;;8.47;5.13;;;23.80;37.70;;;;;;5067977;28;20195;-66
2023/01/24 01:01:40;;;;;;;10.87;5.70;;;23.80;37.70;;;;;;5066797;28;20195;-66
2023/01/24 01:04:07;;;;;;;7.93;5.23;;;23.90;37.80;;;;;;5067013;28;20207;-65
2023/01/24 01:06:34;;;;;;;15.40;6.90;;;23.90;37.90;;;;;;5064621;28;20204;-65
2023/01/24 01:09:03;;;;;;;8.47;4.77;;;23.90;37.80;;;;;;5067610;28;20232;-66
2023/01/24 01:11:30;;;;;;;13.83;6.70;;;23.80;37.80;;;;;;5056934;28;20291;-77
2023/01/24 01:13:57;;;;;;;16.30;7.40;;;23.90;37.80;;;;;;5065173;28;20326;-70
2023/01/24 01:16:25;;;;;;;15.23;7.03;;;23.80;37.80;;;;;;5060953;28;20191;-70
2023/01/24 01:18:55;;;;;;;14.83;6.70;;;23.90;37.80;;;;;;5063974;28;20204;-66
2023/01/24 01:21:23;;;;;;;8.70;4.87;;;23.80;37.70;;;;;;5066894;28;20211;-65
2023/01/24 01:23:50;;;;;;;13.17;6.67;;;23.80;37.70;;;;;;5067040;28;20199;-66
2023/01/24 01:26:20;;;;;;;11.30;6.13;;;23.80;37.70;;;;;;5062495;28;20208;-65
2023/01/24 01:28:48;;;;;;;8.07;5.20;;;23.80;37.70;;;;;;5065587;28;20672;-65
2023/01/24 01:31:15;;;;;;;23.93;9.53;;;23.80;37.70;;;;;;5053385;28;20210;-74
2023/01/24 01:33:44;;;;;;;8.80;5.17;;;23.80;37.70;;;;;;5063108;28;20551;-66
2023/01/24 01:36:11;;;;;;;15.30;7.03;;;23.80;37.70;;;;;;5063157;28;20200;-68
2023/01/24 01:38:38;;;;;;;12.30;6.30;;;23.80;37.60;;;;;;5064897;28;20766;-67
2023/01/24 01:41:05;;;;;;;9.43;5.60;;;23.80;37.70;;;;;;5067091;28;20200;-65
2023/01/24 01:43:34;;;;;;;9.97;5.47;;;23.80;37.60;;;;;;5067178;28;20286;-65
2023/01/24 01:46:10;;;;;;;6.93;4.53;;;23.80;37.60;;;;;;5066638;28;20214;-66
2023/01/24 01:48:41;;;;;;;9.47;5.00;;;23.80;37.60;;;;;;5064073;28;20286;-66
2023/01/24 01:51:17;;;;;;;10.27;5.67;;;23.80;37.60;;;;;;5061615;28;20207;-66
2023/01/24 01:53:48;;;;;;;7.43;4.67;;;23.80;37.60;;;;;;5062512;28;20206;-70
2023/01/24 01:56:22;;;;;;;10.87;5.53;;;23.80;37.50;;;;;;5066196;28;20203;-65
2023/01/24 01:58:51;;;;;;;9.53;5.27;;;23.80;37.80;;;;;;5070033;28;20276;-65
2023/01/24 02:01:18;;;;;;;9.50;5.30;;;23.80;37.50;;;;;;5069076;28;20193;-66
2023/01/24 02:03:51;;;;;;;10.03;5.30;;;23.80;37.50;;;;;;5069758;28;20208;-66
2023/01/24 02:06:39;;;;;;;17.93;7.43;;;23.80;37.50;;;;;;5067328;28;22005;-66
2023/01/24 02:09:09;;;;;;;10.83;5.83;;;23.80;37.40;;;;;;5069569;28;20210;-66
2023/01/24 02:11:40;;;;;;;8.57;5.10;;;23.80;37.50;;;;;;5066686;28;20203;-65
2023/01/24 02:16:57;;;;;;;9.47;5.40;;;23.80;37.40;;;;;;5063177;28;20234;-66
2023/01/24 02:19:31;;;;;;;8.03;5.20;;;23.80;37.50;;;;;;5051733;28;20219;-66
2023/01/24 02:22:11;;;;;;;27.70;9.87;;;23.80;37.40;;;;;;5056250;28;20199;-65
2023/01/24 02:24:43;;;;;;;12.03;6.00;;;23.80;37.40;;;;;;5060937;28;20221;-68
2023/01/24 02:27:11;;;;;;;14.40;6.80;;;23.80;37.40;;;;;;5061017;28;20226;-65
2023/01/24 02:29:38;;;;;;;16.37;7.37;;;23.80;37.30;;;;;;5060168;28;20200;-66
2023/01/24 02:32:08;;;;;;;11.00;5.60;;;23.80;37.40;;;;;;5061856;28;20688;-66
2023/01/24 02:34:35;;;;;;;14.47;6.73;;;23.70;37.30;;;;;;5060608;28;20236;-65
2023/01/24 02:37:06;;;;;;;14.33;6.53;;;23.80;37.30;;;;;;5061170;28;20206;-66
2023/01/24 02:39:39;;;;;;;12.20;6.10;;;23.70;37.30;;;;;;5064560;28;20222;-74
2023/01/24 02:42:10;;;;;;;9.57;5.40;;;23.70;37.20;;;;;;5067747;28;20198;-76
2023/01/24 02:44:44;;;;;;;14.40;6.77;;;23.70;37.20;;;;;;5064441;28;20207;-77
2023/01/24 02:47:11;;;;;;;12.97;6.27;;;23.70;37.20;;;;;;5057557;28;20199;-77
2023/01/24 02:49:38;;;;;;;14.10;6.73;;;23.70;37.20;;;;;;5064579;28;20204;-69
2023/01/24 02:54:50;;;;;;;16.17;7.00;;;23.70;37.20;;;;;;5064745;28;20357;-66
2023/01/24 03:00:03;;;;;;;18.07;7.67;;;23.70;37.20;;;;;;5065862;28;20761;-66
2023/01/24 03:02:30;;;;;;;10.27;5.57;;;23.70;37.20;;;;;;5065997;28;20200;-79
2023/01/24 03:04:57;;;;;;;12.20;6.23;;;23.70;37.30;;;;;;5062709;28;20253;-78
2023/01/24 03:07:24;;;;;;;9.07;5.30;;;23.70;37.20;;;;;;5064213;28;20199;-75
2023/01/24 03:09:51;;;;;;;20.43;8.50;;;23.70;37.20;;;;;;5062448;28;20203;-70
2023/01/24 03:34:32;;;;;;;13.87;6.50;;;23.60;37.10;;;;;;5066722;28;20304;-65
2023/01/24 03:36:59;;;;;;;9.07;5.10;;;23.70;37.80;;;;;;5068986;28;20199;-65
2023/01/24 03:42:11;;;;;;;9.27;5.20;;;23.60;37.10;;;;;;5067621;28;20720;-65
2023/01/24 03:44:38;;;;;;;9.67;5.50;;;23.60;37.10;;;;;;5067066;28;20212;-65
2023/01/24 03:47:06;;;;;;;15.30;6.93;;;23.60;37.10;;;;;;5056996;28;20222;-66
2023/01/24 03:52:29;;;;;;;15.30;7.07;;;23.60;37.10;;;;;;5064682;28;20330;-65
2023/01/24 03:54:57;;;;;;;10.17;5.30;;;23.60;37.10;;;;;;5068642;28;20995;-66
2023/01/24 03:57:24;;;;;;;8.60;4.97;;;23.60;37.10;;;;;;5067709;28;20200;-66
2023/01/24 03:59:51;;;;;;;14.97;6.73;;;23.60;37.10;;;;;;5066702;28;20206;-71
2023/01/24 04:02:20;;;;;;;10.13;5.67;;;23.60;37.10;;;;;;5068573;28;20544;-68
2023/01/24 04:07:32;;;;;;;15.77;7.23;;;23.60;37.10;;;;;;5066781;28;20407;-71
2023/01/24 04:09:59;;;;;;;10.53;5.50;;;23.60;37.10;;;;;;5064704;28;20249;-65
2023/01/24 04:12:26;;;;;;;14.10;6.60;;;23.60;37.10;;;;;;5064286;28;21190;-65
2023/01/24 04:14:53;;;;;;;8.67;5.27;;;23.60;37.10;;;;;;5058707;28;20219;-67
2023/01/24 04:17:22;;;;;;;9.00;4.80;;;23.60;37.10;;;;;;5064131;28;20209;-65
2023/01/24 04:19:48;;;;;;;8.20;5.07;;;23.60;37.10;;;;;;5067644;28;20295;-65
2023/01/24 04:22:16;;;;;;;10.77;5.60;;;23.60;37.10;;;;;;5063720;28;20533;-65
2023/01/24 04:24:43;;;;;;;12.37;6.20;;;23.60;37.10;;;;;;5064465;28;20214;-65
2023/01/24 04:27:10;;;;;;;15.03;6.73;;;23.60;37.10;;;;;;5065704;28;20291;-65
2023/01/24 04:29:37;;;;;;;10.53;5.67;;;23.60;37.10;;;;;;5064823;28;20543;-65
2023/01/24 04:32:05;;;;;;;11.13;5.70;;;23.60;37.10;;;;;;5056730;28;20648;-65
2023/01/24 04:34:33;;;;;;;15.10;6.27;;;23.60;37.10;;;;;;5063429;28;20195;-65
2023/01/24 04:37:01;;;;;;;10.00;5.43;;;23.60;37.10;;;;;;5066809;28;20209;-67
2023/01/24 04:39:28;;;;;;;5.93;4.27;;;23.60;36.90;;;;;;5058463;28;20199;-76
2023/01/24 04:41:55;;;;;;;9.77;5.30;;;23.60;36.90;;;;;;5067050;28;20207;-80
2023/01/24 04:44:21;;;;;;;12.63;6.00;;;23.60;37.00;;;;;;5063850;28;20225;-68
2023/01/24 04:46:48;;;;;;;12.53;6.33;;;23.60;37.00;;;;;;5065589;28;20222;-81
2023/01/24 04:49:15;;;;;;;12.13;5.93;;;23.50;37.00;;;;;;5065244;28;20274;-82
2023/01/24 04:51:44;;;;;;;20.73;8.53;;;23.50;37.00;;;;;;5064514;28;20218;-71
2023/01/24 04:54:11;;;;;;;12.83;6.20;;;23.50;37.00;;;;;;5063224;28;20198;-83
2023/01/24 04:56:38;;;;;;;15.33;6.80;;;23.50;36.90;;;;;;5065558;28;20539;-79
2023/01/24 04:59:06;;;;;;;12.40;6.07;;;23.50;37.00;;;;;;5066841;28;20282;-77
2023/01/24 05:01:32;;;;;;;18.63;7.80;;;23.50;37.00;;;;;;5059072;28;20233;-73
2023/01/24 05:03:59;;;;;;;10.37;5.63;;;23.50;37.00;;;;;;5061668;28;20292;-69
2023/01/24 05:06:27;;;;;;;9.53;5.40;;;23.50;37.00;;;;;;5064522;28;20204;-67
2023/01/24 05:08:55;;;;;;;10.37;5.37;;;23.50;37.00;;;;;;5067678;28;20230;-70
2023/01/24 05:11:23;;;;;;;12.53;6.17;;;23.50;37.00;;;;;;5063238;28;20195;-68
2023/01/24 05:13:51;;;;;;;10.53;5.83;;;23.50;37.00;;;;;;5062793;28;20231;-72
2023/01/24 05:16:18;;;;;;;9.23;5.27;;;23.50;37.00;;;;;;5065685;28;20703;-82
2023/01/24 05:18:45;;;;;;;14.60;6.70;;;23.50;37.00;;;;;;5064954;28;20199;-73
2023/01/24 05:21:14;;;;;;;14.27;6.63;;;23.50;36.90;;;;;;5064069;28;20213;-89
2023/01/24 05:23:42;;;;;;;16.50;6.83;;;23.50;37.00;;;;;;5062435;28;20214;-70
2023/01/24 05:26:10;;;;;;;9.10;4.83;;;23.50;36.90;;;;;;5060752;28;20778;-67
2023/01/24 05:28:37;;;;;;;7.90;4.80;;;23.50;36.90;;;;;;5063109;28;20203;-80
2023/01/24 05:31:07;;;;;;;19.20;8.13;;;23.50;36.90;;;;;;5057459;28;20195;-76
2023/01/24 05:33:34;;;;;;;9.30;4.87;;;23.50;36.90;;;;;;5061504;28;20211;-67
2023/01/24 05:36:01;;;;;;;10.73;5.33;;;23.50;36.90;;;;;;5065493;28;20226;-67
2023/01/24 05:38:28;;;;;;;8.90;5.13;;;23.50;36.90;;;;;;5068081;28;20199;-75
2023/01/24 05:41:00;;;;;;;9.40;5.23;;;23.50;36.90;;;;;;5066802;28;20274;-82
2023/01/24 05:43:29;;;;;;;13.63;6.77;;;23.50;36.80;;;;;;5065378;28;20200;-81
2023/01/24 05:45:59;;;;;;;10.67;5.67;;;23.50;36.90;;;;;;5066971;28;20282;-84
2023/01/24 05:48:26;;;;;;;9.93;5.90;;;23.50;36.80;;;;;;5066675;28;20218;-79
2023/01/24 05:50:58;;;;;;;11.20;5.60;;;23.50;36.80;;;;;;5065619;28;20199;-74
2023/01/24 05:53:27;;;;;;;9.40;5.17;;;23.50;36.80;;;;;;5067112;28;20202;-74
2023/01/24 05:55:57;;;;;;;8.57;4.77;;;23.50;36.80;;;;;;5067466;28;20223;-71
2023/01/24 05:58:24;;;;;;;12.60;6.33;;;23.50;37.40;;;;;;5061267;28;20195;-86
2023/01/24 06:00:53;;;;;;;10.23;5.50;;;23.50;36.80;;;;;;5054292;28;20210;-72
2023/01/24 06:03:21;;;;;;;11.07;5.60;;;23.50;36.80;;;;;;5063425;28;20202;-76
2023/01/24 06:05:49;;;;;;;8.67;4.90;;;23.50;37.00;;;;;;5066982;28;20203;-67
2023/01/24 06:08:16;;;;;;;11.03;5.47;;;23.50;36.90;;;;;;5067926;28;20187;-67
2023/01/24 06:10:43;;;;;;;10.53;5.57;;;23.50;36.90;;;;;;5067743;28;20207;-71
2023/01/24 06:13:10;;;;;;;15.50;7.20;;;23.50;37.00;;;;;;5066170;28;20229;-66
2023/01/24 06:15:37;;;;;;;9.60;5.77;;;23.50;37.10;;;;;;5055540;28;20594;-69
2023/01/24 06:18:06;;;;;;;15.43;6.87;;;23.50;37.10;;;;;;5060630;28;20205;-66
2023/01/24 06:20:34;;;;;;;13.83;6.40;;;23.60;37.50;;;;;;5059580;28;20203;-66
2023/01/24 06:23:05;;;;;;;10.50;5.73;;;23.60;37.70;;;;;;5057727;28;20204;-66
2023/01/24 06:25:33;;;;;;;10.50;5.77;;;23.60;38.00;;;;;;5067182;28;20203;-65
2023/01/24 06:28:00;;;;;;;8.50;4.90;;;23.60;37.90;;;;;;5066938;28;20951;-66
2023/01/24 06:30:28;;;;;;;20.63;8.03;;;23.60;38.00;;;;;;5060884;28;20646;-65
2023/01/24 06:33:17;;;;;;;24.30;9.40;;;23.60;38.20;;;;;;5061635;28;20236;-64
2023/01/24 06:35:55;;;;;;;21.87;8.23;;;23.70;38.50;;;;;;5047450;28;20227;-66
2023/01/24 06:38:24;;;;;;;25.33;8.83;;;23.70;38.40;;;;;;5062351;28;20559;-65
2023/01/24 06:40:56;;;;;;;20.00;8.17;;;23.70;38.30;;;;;;5066019;28;20640;-70
2023/01/24 06:43:23;;;;;;;17.53;8.10;;;23.80;38.40;;;;;;5067161;28;20212;-64
2023/01/24 06:45:50;;;;;;;17.60;7.10;;;23.80;38.40;;;;;;5066778;28;20206;-71
2023/01/24 06:48:19;;;;;;;16.73;8.10;;;23.80;38.40;;;;;;5068289;28;20206;-66
2023/01/24 06:50:46;;;;;;;17.97;7.43;;;23.80;38.30;;;;;;5069841;28;20215;-65
2023/01/24 06:53:14;;;;;;;19.33;7.67;;;23.80;38.10;;;;;;5065096;28;20205;-66
2023/01/24 06:55:44;;;;;;;14.27;6.20;;;23.80;38.10;;;;;;5069771;28;20241;-65
2023/01/24 06:58:11;;;;;;;13.87;6.40;;;23.80;37.90;;;;;;5055438;28;20206;-74
2023/01/24 07:00:38;;;;;;;17.63;6.17;;;23.90;37.90;;;;;;5069013;28;20191;-65
2023/01/24 07:03:07;;;;;;;20.87;8.20;;;23.90;37.80;;;;;;5067960;28;20588;-64
2023/01/24 07:05:36;;;;;;;11.33;5.47;;;23.80;37.60;;;;;;5069813;28;20204;-65
2023/01/24 07:08:03;;;;;;;13.97;5.87;;;23.80;37.50;;;;;;5067298;28;20205;-66
2023/01/24 07:10:31;;;;;;;13.00;6.30;;;23.90;37.60;;;;;;5070613;28;20203;-64
2023/01/24 07:12:58;;;;;;;11.37;5.50;;;23.90;37.50;;;;;;5069650;28;20231;-68
2023/01/24 07:15:25;;;;;;;14.40;5.87;;;23.80;37.40;;;;;;5067703;28;20199;-65
2023/01/24 07:17:53;;;;;;;10.20;5.33;;;23.80;37.30;;;;;;5069323;28;20203;-64
2023/01/24 07:20:20;;;;;;;12.00;5.30;;;23.80;37.30;;;;;;5069637;28;20217;-64
2023/01/24 07:22:49;;;;;;;10.73;5.67;;;23.80;37.30;;;;;;5069120;28;20209;-64
2023/01/24 07:25:20;;;;;;;15.63;7.43;;;23.80;37.30;;;;;;5066841;28;20231;-65
2023/01/24 07:27:48;;;;;;;10.07;4.83;;;23.80;37.30;;;;;;5064884;28;20199;-66
2023/01/24 07:30:15;;;;;;;11.47;5.50;;;23.80;37.30;;;;;;5068923;28;20209;-73
2023/01/24 07:32:42;;;;;;;18.27;8.05;;;23.80;37.30;;;;;;5065438;28;20440;-66
2023/01/24 07:35:09;;;;;;;10.83;5.90;;;23.70;37.40;;;;;;5067918;28;20278;-67
2023/01/24 07:37:36;;;;;;;11.83;5.97;;;23.70;37.50;;;;;;5068970;28;20218;-65
2023/01/24 07:40:06;;;;;;;9.20;5.33;;;23.80;37.50;;;;;;5069538;28;20196;-67
2023/01/24 07:42:33;;;;;;;11.10;5.23;;;23.80;37.30;;;;;;5051707;28;20639;-63
2023/01/24 07:44:59;;;;;;;11.20;5.53;;;23.80;37.30;;;;;;5058812;28;20203;-65
2023/01/24 07:47:27;;;;;;;10.73;5.10;;;23.80;37.30;;;;;;5069963;28;20200;-69
2023/01/24 07:49:54;;;;;;;12.87;6.17;;;23.80;37.30;;;;;;5069463;28;20204;-65
2023/01/24 07:52:21;;;;;;;13.27;5.83;;;23.80;37.90;;;;;;5069493;28;20302;-66
2023/01/24 07:54:48;;;;;;;11.57;5.80;;;23.80;37.30;;;;;;5069080;28;20214;-66
2023/01/24 07:57:16;;;;;;;11.97;5.97;;;23.80;37.30;;;;;;5069059;28;20239;-69
2023/01/24 07:59:43;;;;;;;13.50;5.67;;;23.80;37.20;;;;;;5069500;28;20239;-72
2023/01/24 08:02:13;;;;;;;11.67;5.70;;;23.80;37.20;;;;;;5063371;28;20677;-77
2023/01/24 08:04:40;;;;;;;11.33;5.33;;;23.80;37.20;;;;;;5069257;28;20210;-77
2023/01/24 08:09:50;;;;;;;14.17;6.20;;;23.70;37.10;;;;;;5067906;28;20248;-77
2023/01/24 08:12:19;;;;;;;17.97;7.50;;;23.70;37.10;;;;;;5067906;28;20241;-72
2023/01/24 08:14:46;;;;;;;18.13;8.20;;;23.70;37.10;;;;;;5061613;28;20210;-70
2023/01/24 08:17:13;;;;;;;12.40;6.47;;;23.70;37.00;;;;;;5059214;28;20242;-66
2023/01/24 08:19:39;;;;;;;19.97;8.70;;;23.70;37.10;;;;;;5057579;28;20198;-68
2023/01/24 08:22:07;;;;;;;11.60;6.10;;;23.60;36.90;;;;;;5068538;28;20202;-79
2023/01/24 08:24:34;;;;;;;11.90;6.13;;;23.60;37.00;;;;;;5067710;28;20218;-84
2023/01/24 08:27:02;;;;;;;14.13;6.13;;;23.50;36.90;;;;;;5067137;28;20290;-73
2023/01/24 08:29:31;;;;;;;12.90;5.83;;;23.50;37.00;;;;;;5066739;28;20207;-81
2023/01/24 08:31:59;;;;;;;12.37;6.10;;;23.50;37.10;;;;;;5067940;28;20671;-83
2023/01/24 08:34:26;;;;;;;10.73;5.20;;;23.40;36.90;;;;;;5067273;28;20231;-83
2023/01/24 08:36:53;;;;;;;14.53;6.17;;;23.40;37.00;;;;;;5056878;28;20239;-75
2023/01/24 08:39:20;;;;;;;12.07;6.50;;;23.30;36.90;;;;;;5068009;28;20223;-80
2023/01/24 08:41:47;;;;;;;19.53;7.57;;;23.30;36.90;;;;;;5067709;28;20312;-81
2023/01/24 08:44:15;;;;;;;12.60;6.60;;;23.30;37.10;;;;;;5067280;28;20233;-65
2023/01/24 08:46:43;;;;;;;8.73;5.13;;;23.30;37.10;;;;;;5068446;28;20207;-71
2023/01/24 08:49:11;;;;;;;11.90;5.47;;;23.20;37.10;;;;;;5065688;28;20218;-70
2023/01/24 08:51:38;;;;;;;14.13;6.60;;;23.20;37.70;;;;;;5067291;28;20222;-68
2023/01/24 08:54:06;;;;;;;13.10;5.73;;;23.20;37.10;;;;;;5068166;28;20213;-65
2023/01/24 08:56:34;;;;;;;14.77;5.50;;;23.10;37.10;;;;;;5067242;28;20237;-65
2023/01/24 08:59:00;;;;;;;12.43;5.67;;;23.10;37.10;;;;;;5065566;28;20210;-77
2023/01/24 09:01:27;;;;;;;11.10;6.10;;;23.10;37.10;;;;;;5067530;28;20302;-77
2023/01/24 09:03:56;;;;;;;14.17;6.13;;;23.10;37.20;;;;;;5067256;28;20566;-79
2023/01/24 09:06:24;;;;;;;10.63;5.13;;;23.10;37.20;;;;;;5066971;28;20211;-81
2023/01/24 09:08:53;;;;;;;14.97;6.57;;;23.10;37.20;;;;;;5066614;28;20203;-69
2023/01/24 09:11:20;;;;;;;11.33;5.10;;;23.10;37.20;;;;;;5067324;28;20284;-65
2023/01/24 09:13:47;;;;;;;12.53;5.73;;;23.10;37.20;;;;;;5066719;28;20225;-73
2023/01/24 09:16:14;;;;;;;12.73;6.17;;;23.00;37.10;;;;;;5062464;28;20207;-69
2023/01/24 09:18:41;;;;;;;12.33;6.10;;;23.00;37.20;;;;;;5062396;28;20596;-76
2023/01/24 09:21:09;;;;;;;9.17;5.13;;;23.00;37.20;;;;;;5067754;28;20662;-66
2023/01/24 09:23:37;;;;;;;12.10;6.17;;;23.00;37.20;;;;;;5067841;28;20201;-65
2023/01/24 09:26:04;;;;;;;11.97;5.67;;;23.00;37.20;;;;;;5068048;28;20213;-68
2023/01/24 09:28:32;;;;;;;12.60;5.47;;;23.00;37.20;;;;;;5062115;28;20184;-69
2023/01/24 09:30:59;;;;;;;13.20;5.87;;;23.00;37.20;;;;;;5047351;28;20298;-70
2023/01/24 09:33:26;;;;;;;11.17;5.60;;;23.00;37.20;;;;;;5057844;28;20217;-78
2023/01/24 09:35:54;;;;;;;11.03;5.80;;;23.00;37.20;;;;;;5064779;28;20253;-65
2023/01/24 09:38:22;;;;;;;11.07;5.67;;;23.00;37.30;;;;;;5065207;28;20219;-65
2023/01/24 09:40:56;;;;;;;11.17;5.73;;;23.00;37.30;;;;;;5067590;28;20225;-64
2023/01/24 09:43:39;;;;;;;12.43;5.97;;;22.90;37.20;;;;;;5066500;28;20291;-65
2023/01/24 09:46:16;;;;;;;12.87;6.03;;;22.90;37.20;;;;;;5067678;28;20196;-65
2023/01/24 09:48:44;;;;;;;12.77;5.60;;;23.00;37.30;;;;;;5066063;28;20203;-65
2023/01/24 09:51:17;;;;;;;10.77;5.50;;;22.90;37.20;;;;;;5066527;28;20200;-85
2023/01/24 09:53:49;;;;;;;10.27;5.37;;;22.90;37.30;;;;;;5066555;28;20198;-65
2023/01/24 09:56:26;;;;;;;10.03;5.43;;;22.90;37.30;;;;;;5063690;28;20230;-81
2023/01/24 09:59:10;;;;;;;12.03;5.60;;;22.90;37.30;;;;;;5067111;28;20203;-64
2023/01/24 10:01:40;;;;;;;11.73;5.53;;;22.90;37.20;;;;;;5066038;28;20256;-68
2023/01/24 10:04:16;;;;;;;12.00;5.97;;;22.90;37.30;;;;;;5065665;28;20294;-69
2023/01/24 10:06:53;;;;;;;13.33;6.20;;;22.90;37.20;;;;;;5064800;28;20207;-65
2023/01/24 10:09:30;;;;;;;17.60;8.20;;;22.90;37.30;;;;;;5062217;28;20209;-83
2023/01/24 10:12:06;;;;;;;10.93;5.43;;;22.90;37.30;;;;;;5067353;28;20253;-69
2023/01/24 10:14:51;;;;;;;13.63;6.67;;;22.90;37.30;;;;;;5066153;28;20206;-66
2023/01/24 10:17:41;;;;;;;12.17;5.67;;;22.90;37.90;;;;;;5067381;28;20257;-80
2023/01/24 10:20:23;;;;;;;11.43;5.80;;;22.90;37.30;;;;;;5070357;28;20226;-86
2023/01/24 10:23:05;;;;;;;10.03;5.13;;;22.90;37.30;;;;;;5070583;28;20191;-85
2023/01/24 10:25:44;;;;;;;9.33;5.53;;;22.90;37.30;;;;;;5070560;28;20210;-83
2023/01/24 10:28:19;;;;;;;10.93;5.63;;;22.90;37.30;;;;;;5057597;28;20198;-83
2023/01/24 10:30:53;;;;;;;9.67;5.40;;;22.90;37.30;;;;;;5070538;28;20206;-83
2023/01/24 10:33:20;;;;;;;11.03;5.60;;;22.90;37.30;;;;;;5067896;28;20200;-83
2023/01/24 10:35:56;;;;;;;11.90;5.53;;;22.90;37.30;;;;;;5069748;28;20204;-86
2023/01/24 10:38:24;;;;;;;10.40;5.43;;;22.90;37.30;;;;;;5062746;28;20249;-86
2023/01/24 10:40:54;;;;;;;16.63;6.70;;;22.90;37.30;;;;;;5067180;28;20210;-87
2023/01/24 10:43:25;;;;;;;11.13;5.77;;;22.90;37.30;;;;;;5066678;28;20938;-87
2023/01/24 10:46:05;;;;;;;11.63;6.23;;;22.90;37.30;;;;;;5065016;28;20228;-68
2023/01/24 10:48:40;;;;;;;16.17;6.10;;;22.90;37.30;;;;;;5063994;28;20198;-71
2023/01/24 10:51:15;;;;;;;11.77;5.77;;;22.90;37.30;;;;;;5053115;28;20203;-67
2023/01/24 10:53:42;;;;;;;9.37;5.37;;;22.90;37.50;;;;;;5070215;28;20199;-68
2023/01/24 10:56:12;;;;;;;17.37;7.40;;;22.90;37.40;;;;;;5069648;28;20197;-69
2023/01/24 10:58:43;;;;;;;10.57;5.40;;;22.90;37.40;;;;;;5068207;28;20230;-72
2023/01/24 11:01:19;;;;;;;14.73;5.70;;;22.90;37.40;;;;;;5070622;28;20205;-78
2023/01/24 11:03:50;;;;;;;16.17;6.97;;;23.00;37.60;;;;;;5065828;28;20761;-73
2023/01/24 11:06:24;;;;;;;9.40;5.33;;;23.00;37.40;;;;;;5068163;28;20200;-79
2023/01/24 11:08:55;;;;;;;11.87;5.70;;;23.00;37.40;;;;;;5060105;28;20210;-74
2023/01/24 11:11:29;;;;;;;19.60;7.90;;;23.00;37.40;;;;;;5063224;28;20696;-74
2023/01/24 11:13:57;;;;;;;16.93;6.97;;;23.00;37.40;;;;;;5066182;28;20192;-76
2023/01/24 11:16:28;;;;;;;11.27;5.30;;;23.10;37.50;;;;;;5065343;28;20203;-73
2023/01/24 11:18:58;;;;;;;19.83;8.13;;;23.00;37.30;;;;;;5066180;28;20784;-74
2023/01/24 11:21:27;;;;;;;11.33;5.53;;;23.10;37.50;;;;;;5062137;28;20233;-81
2023/01/24 11:24:08;;;;;;;8.73;5.17;;;23.00;37.40;;;;;;5067361;28;20199;-81
2023/01/24 11:26:52;;;;;;;12.43;5.60;;;23.00;37.30;;;;;;5067994;28;20207;-73
2023/01/24 11:29:19;;;;;;;7.90;4.93;;;23.00;37.30;;;;;;5059917;28;20203;-68
2023/01/24 11:31:50;;;;;;;14.57;6.87;;;23.00;37.30;;;;;;5061385;28;20672;-66
2023/01/24 11:34:45;;;;;;;10.20;5.43;;;23.10;37.50;;;;;;5067967;28;20210;-67
2023/01/24 11:37:31;;;;;;;6.93;4.40;;;23.00;37.40;;;;;;5069618;28;20208;-64
2023/01/24 11:40:13;;;;;;;7.93;4.70;;;23.00;37.40;;;;;;5069895;28;20201;-65
2023/01/24 11:42:51;;;;;;;13.33;5.63;;;23.00;37.40;;;;;;5069519;28;20199;-65
2023/01/24 11:45:28;;;;;;;8.27;4.87;;;23.00;37.40;;;;;;5069790;28;20210;-67
2023/01/24 11:48:07;;;;;;;9.47;5.10;;;23.00;37.40;;;;;;5064021;28;20272;-69
2023/01/24 11:50:42;;;;;;;7.63;4.47;;;23.00;37.50;;;;;;5064564;28;20203;-67
2023/01/24 11:53:22;;;;;;;8.70;5.00;;;23.00;37.50;;;;;;5069600;28;20202;-66
2023/01/24 11:56:00;;;;;;;10.50;5.07;;;23.00;37.40;;;;;;5066696;28;20207;-67
2023/01/24 11:58:44;;;;;;;8.30;4.80;;;23.00;37.40;;;;;;5069558;28;20230;-71
2023/01/24 12:01:21;;;;;;;10.53;5.40;;;23.00;37.40;;;;;;5066434;28;20199;-67
2023/01/24 12:04:33;;;;;;;10.57;5.60;;;23.00;37.40;;;;;;5065638;28;20242;-65
2023/01/24 12:07:05;;;;;;;9.93;5.00;;;23.00;37.30;;;;;;4988053;28;20216;-64
2023/01/24 12:09:38;;;;;;;10.90;5.37;;;23.00;37.30;;;;;;5054330;28;20292;-65
2023/01/24 12:12:14;;;;;;;9.53;5.33;;;23.00;37.40;;;;;;5067754;28;20237;-73
2023/01/24 12:15:13;;;;;;;10.77;4.93;;;23.00;37.30;;;;;;5067994;28;20203;-72
2023/01/24 12:18:03;;;;;;;8.43;4.60;;;23.00;37.30;;;;;;5067704;28;20637;-74
2023/01/24 12:20:57;;;;;;;10.97;5.83;;;23.00;37.30;;;;;;5071582;28;20205;-68
2023/01/24 12:23:29;;;;;;;17.17;7.27;;;22.90;37.20;;;;;;5063343;28;20259;-77
2023/01/24 12:26:01;;;;;;;10.87;5.07;;;22.90;37.20;;;;;;5060827;28;20910;-79
2023/01/24 12:28:34;;;;;;;10.00;5.07;;;22.90;37.90;;;;;;5067005;28;20207;-65
2023/01/24 12:31:05;;;;;;;14.57;6.63;;;22.90;37.30;;;;;;5051242;28;20306;-67
2023/01/24 12:33:36;;;;;;;10.50;5.47;;;22.90;37.30;;;;;;5062393;28;20645;-65
2023/01/24 12:36:17;;;;;;;14.87;6.53;;;22.90;37.30;;;;;;5055778;28;20237;-64
2023/01/24 12:38:46;;;;;;;9.33;5.07;;;22.90;37.30;;;;;;5062581;28;20232;-69
2023/01/24 12:41:25;;;;;;;9.57;4.97;;;22.90;37.30;;;;;;5057084;28;20203;-65
2023/01/24 12:43:59;;;;;;;9.83;5.17;;;22.90;37.30;;;;;;5061442;28;20210;-64
2023/01/24 12:46:34;;;;;;;11.10;5.50;;;22.90;37.30;;;;;;5058569;28;20236;-64
2023/01/24 12:49:10;;;;;;;11.30;5.70;;;22.90;37.30;;;;;;5067273;28;20245;-65
2023/01/24 12:51:43;;;;;;;16.83;7.10;;;22.90;37.30;;;;;;5050460;28;20202;-65
2023/01/24 12:54:14;;;;;;;16.00;7.07;;;22.90;37.30;;;;;;5052402;28;20237;-64
2023/01/24 12:56:49;;;;;;;8.73;5.10;;;22.90;37.20;;;;;;5067480;28;20196;-65
2023/01/24 12:59:22;;;;;;;12.73;5.80;;;22.90;37.30;;;;;;5067479;28;20230;-66
2023/01/24 13:02:07;;;;;;;7.53;4.47;;;22.90;37.30;;;;;;5066141;28;20674;-65
2023/01/24 13:04:43;;;;;;;8.10;5.03;;;22.90;37.30;;;;;;5065795;28;20887;-65
2023/01/24 13:07:16;;;;;;;19.23;8.10;;;22.90;37.30;;;;;;5065645;28;20376;-65
2023/01/24 13:09:49;;;;;;;12.73;5.77;;;22.90;37.20;;;;;;5063901;28;20199;-68
2023/01/24 13:12:20;;;;;;;8.53;4.80;;;22.90;37.30;;;;;;5067321;28;20204;-64
2023/01/24 13:14:52;;;;;;;10.33;5.47;;;22.90;37.30;;;;;;5066460;28;20199;-65
2023/01/24 13:17:57;;;;;;;10.30;5.37;;;22.90;37.30;;;;;;5066630;28;20205;-64
2023/01/24 13:20:46;;;;;;;10.30;5.30;;;22.80;37.20;;;;;;5025205;28;20224;-64
2023/01/24 13:23:45;;;;;;;10.00;5.57;;;22.90;37.30;;;;;;5064155;28;20210;-64
2023/01/24 13:26:46;;;;;;;8.90;4.93;;;22.80;37.20;;;;;;5058337;28;20209;-64
2023/01/24 13:29:27;;;;;;;16.87;6.83;;;22.80;37.20;;;;;;4985169;28;20202;-64
2023/01/24 13:32:03;;;;;;;10.30;5.40;;;22.80;37.20;;;;;;5057640;28;20209;-67
2023/01/24 13:34:35;;;;;;;8.47;4.77;;;22.80;37.30;;;;;;5050205;28;20202;-65
2023/01/24 13:37:03;;;;;;;10.03;5.23;;;22.80;37.30;;;;;;5064043;28;20191;-65
2023/01/24 13:39:34;;;;;;;9.87;5.40;;;22.80;37.30;;;;;;5067731;28;20219;-69